Ttm Hope — HOLU — position and weather

sailwx.info

Track history (hours):
 
Tides and Currents Weather Stations Pressure Air Temp Water Temp Dewpoint Dewpoint Depression Visibility Wind Speed Wind Dir Waves Ship Positions

Ttm Hope

Last reported at 2017-Dec-03 09:35 UTC. Time now 2017-Dec-13 09:17 UTC.
Position S 26°60' E 153°58'.
Warning: this ship's position is 9 days out of date.

Length 245 m; draft 15.4 m.

Type: Cargo ship. MMSI: 373805000.

Date/timePositionNaut miles runAvg speedWind from/ knotsBaromVisibWave heightAir tempDewpointWater temp
2017-Dec-03 09:35S 26°60' E 153°58'3511.4
2017-Dec-03 06:29S 27°35' E 153°55'611.9
2017-Dec-03 06:00S 27°41' E 153°55'612.1
2017-Dec-03 05:30S 27°47' E 153°54'612.4
2017-Dec-03 05:00S 27°53' E 153°54'612.6
2017-Dec-03 04:30S 27°59' E 153°53'612.6
2017-Dec-03 04:00S 28°05' E 153°53'612.3
2017-Dec-03 03:30S 28°12' E 153°52'612.1
2017-Dec-03 03:00S 28°18' E 153°52'612.6
2017-Dec-03 02:30S 28°24' E 153°52'612.8
2017-Dec-03 02:00S 28°30' E 153°51'612.6
2017-Dec-03 01:30S 28°37' E 153°50'23610.5
2017-Dec-02 02:59S 32°25' E 152°41'610.7
2017-Dec-02 02:28S 32°30' E 152°39'511.7
2017-Dec-02 02:00S 32°34' E 152°34'612.4
2017-Dec-02 01:30S 32°38' E 152°29'612.1
2017-Dec-02 01:00S 32°43' E 152°24'612.3
2017-Dec-02 00:30S 32°47' E 152°18'612.2
2017-Dec-02 00:00S 32°51' E 152°13'612.3
2017-Dec-01 23:30S 32°54' E 152°07'612.5
2017-Dec-01 23:00S 32°57' E 152°00'611.7
2017-Dec-01 22:30S 32°57' E 151°53'4 7.9
2017-Dec-01 22:00S 32°55' E 151°49'2 4.3
2017-Dec-01 21:30S 32°55' E 151°47'2 3.3
2017-Dec-01 21:00S 32°53' E 151°46'1 0.1
2017-Dec-01 07:54S 32°53' E 151°45'0 0.0
2017-Dec-01 07:30S 32°53' E 151°45'0 0.0
2017-Dec-01 06:57S 32°53' E 151°45'0 0.0
2017-Dec-01 06:30S 32°53' E 151°45'0 0.0
2017-Dec-01 06:00S 32°53' E 151°45'0 0.0
2017-Dec-01 05:18S 32°53' E 151°45'0 0.0
2017-Dec-01 05:00S 32°53' E 151°45'0 0.0
2017-Dec-01 04:18S 32°53' E 151°45'0 0.0
2017-Dec-01 03:42S 32°53' E 151°45'0 0.0
2017-Dec-01 03:12S 32°53' E 151°45'0 0.0
2017-Dec-01 02:57S 32°53' E 151°45'0 0.0
2017-Dec-01 02:24S 32°53' E 151°45'0 0.0
2017-Dec-01 02:00S 32°53' E 151°45'0 0.0
2017-Dec-01 00:27S 32°53' E 151°45'0 0.0
2017-Nov-30 23:51S 32°53' E 151°45'0 0.0
2017-Nov-30 23:24S 32°53' E 151°45'0 0.0
2017-Nov-30 22:54S 32°53' E 151°45'0 0.0
2017-Nov-30 22:30S 32°53' E 151°45'0 0.0
2017-Nov-30 22:00S 32°53' E 151°45'0 0.8
2017-Nov-30 21:30S 32°53' E 151°45'1 2.9
2017-Nov-30 21:01S 32°54' E 151°46'3 5.7
2017-Nov-30 20:31S 32°55' E 151°50'3 5.3
2017-Nov-30 20:00S 32°57' E 151°51'2 4.9
2017-Nov-30 19:31S 32°60' E 151°51'4 7.9
2017-Nov-30 19:01S 33°02' E 151°48'3 4.6
2017-Nov-30 18:28S 33°04' E 151°45'0 0.2
2017-Nov-30 18:01S 33°04' E 151°45'0 0.0
2017-Nov-30 17:28S 33°04' E 151°45'0 0.0
2017-Nov-30 16:55S 33°04' E 151°45'0 0.0
2017-Nov-30 16:28S 33°04' E 151°45'0 0.0
2017-Nov-30 15:58S 33°04' E 151°45'0 0.0
2017-Nov-30 15:25S 33°04' E 151°45'0 0.0
2017-Nov-30 14:58S 33°04' E 151°45'0 0.0
2017-Nov-30 14:28S 33°04' E 151°45'0 0.0
2017-Nov-30 13:55S 33°04' E 151°45'0 0.0
2017-Nov-30 13:31S 33°04' E 151°45'0 0.1
2017-Nov-30 13:01S 33°04' E 151°45'0 0.1
2017-Nov-30 12:28S 33°04' E 151°45'0 0.0
2017-Nov-30 11:49S 33°04' E 151°45'0 0.0
2017-Nov-30 11:28S 33°04' E 151°45'0 0.0
2017-Nov-30 10:52S 33°04' E 151°45'0 0.0
2017-Nov-30 10:10S 33°04' E 151°45'0 0.0
2017-Nov-30 09:58S 33°04' E 151°45'0 0.0
2017-Nov-30 09:28S 33°04' E 151°45'0 0.0
2017-Nov-30 08:58S 33°04' E 151°45'0 0.0
2017-Nov-30 08:28S 33°04' E 151°45'0 0.0
2017-Nov-30 07:58S 33°04' E 151°45'0 0.1
2017-Nov-30 07:30S 33°04' E 151°45'1 1.7
2017-Nov-30 07:00S 33°04' E 151°46'4 5.9
2017-Nov-30 06:25S 33°03' E 151°50'3 7.1
2017-Nov-30 06:00S 33°03' E 151°47'1 2.9
2017-Nov-30 05:30S 33°04' E 151°45'0 0.1
2017-Nov-30 05:00S 33°04' E 151°45'0 0.0
2017-Nov-30 04:15S 33°04' E 151°45'0 0.0
2017-Nov-30 04:00S 33°04' E 151°45'0 0.0
2017-Nov-30 03:27S 33°04' E 151°45'0 0.0
2017-Nov-30 02:48S 33°04' E 151°45'0 0.0
2017-Nov-30 02:30S 33°04' E 151°45'0 0.0
2017-Nov-30 02:00S 33°04' E 151°45'0 0.0
2017-Nov-30 01:30S 33°04' E 151°45'0 0.0
2017-Nov-30 01:00S 33°04' E 151°45'0 0.0
2017-Nov-30 00:30S 33°04' E 151°45'0 0.0
2017-Nov-30 00:00S 33°04' E 151°45'0 0.0
2017-Nov-29 23:30S 33°04' E 151°45'0 0.0
2017-Nov-29 23:00S 33°04' E 151°45'0 0.0
2017-Nov-29 22:12S 33°04' E 151°45'0 0.1
2017-Nov-29 22:00S 33°04' E 151°45'0 0.0
2017-Nov-29 21:30S 33°04' E 151°45'0 0.0
2017-Nov-29 21:00S 33°04' E 151°45'0 0.0
2017-Nov-29 20:30S 33°03' E 151°45'0 0.0
2017-Nov-29 19:54S 33°03' E 151°45'0 0.0
2017-Nov-29 19:24S 33°03' E 151°45'0 0.0
2017-Nov-29 19:00S 33°03' E 151°45'0 0.0
2017-Nov-29 18:30S 33°03' E 151°45'0 0.0
2017-Nov-29 18:00S 33°03' E 151°45'0 0.0
2017-Nov-29 17:30S 33°03' E 151°45'0 0.0
2017-Nov-29 17:00S 33°04' E 151°45'0 0.0
2017-Nov-29 16:30S 33°04' E 151°45'0 0.0
2017-Nov-29 15:39S 33°04' E 151°45'0 0.0
2017-Nov-29 15:30S 33°04' E 151°45'0 0.0
2017-Nov-29 15:00S 33°04' E 151°45'0 0.0
2017-Nov-29 14:30S 33°04' E 151°45'0 0.0
2017-Nov-29 14:00S 33°04' E 151°45'0 0.1
2017-Nov-29 13:27S 33°04' E 151°45'0 0.0
2017-Nov-29 12:51S 33°04' E 151°45'0 0.0
2017-Nov-29 12:30S 33°04' E 151°45'0 0.0
2017-Nov-29 12:00S 33°04' E 151°45'0 0.0
2017-Nov-29 11:30S 33°04' E 151°45'0 0.0
2017-Nov-29 11:00S 33°04' E 151°45'0 0.0
2017-Nov-29 10:30S 33°04' E 151°45'0 0.0
2017-Nov-29 10:00S 33°04' E 151°45'0 0.1
2017-Nov-29 09:30S 33°04' E 151°45'0 0.0
2017-Nov-29 09:00S 33°04' E 151°45'0 0.0
2017-Nov-29 08:30S 33°04' E 151°45'0 0.0
2017-Nov-29 07:54S 33°04' E 151°45'0 0.0
2017-Nov-29 07:27S 33°04' E 151°45'0 0.0
2017-Nov-29 07:00S 33°04' E 151°45'0 0.0
2017-Nov-29 06:30S 33°04' E 151°45'0 0.0
2017-Nov-29 06:00S 33°04' E 151°45'0 0.0
2017-Nov-29 05:09S 33°04' E 151°45'0 0.0
2017-Nov-29 05:00S 33°04' E 151°45'0 0.0
2017-Nov-29 04:27S 33°04' E 151°45'0 0.0
2017-Nov-29 04:00S 33°04' E 151°45'0 0.0
2017-Nov-29 03:30S 33°04' E 151°45'0 0.0
2017-Nov-29 03:00S 33°04' E 151°45'0 0.0
2017-Nov-29 02:30S 33°03' E 151°45'0 0.0
2017-Nov-29 02:00S 33°04' E 151°45'0 0.0
2017-Nov-29 01:30S 33°04' E 151°45'0 0.0
2017-Nov-29 01:00S 33°04' E 151°45'0 0.0
2017-Nov-29 00:24S 33°04' E 151°45'0 0.0
2017-Nov-28 23:57S 33°03' E 151°45'0 0.0
2017-Nov-28 23:24S 33°04' E 151°45'0 0.0
2017-Nov-28 22:48S 33°04' E 151°45'0 0.0
2017-Nov-28 22:30S 33°04' E 151°45'0 0.0
2017-Nov-28 22:00S 33°04' E 151°45'0 0.0
2017-Nov-28 21:30S 33°03' E 151°45'0 0.0
2017-Nov-28 21:00S 33°03' E 151°45'0 0.0
2017-Nov-28 20:27S 33°03' E 151°45'0 0.0
2017-Nov-28 19:39S 33°03' E 151°45'0 0.1
2017-Nov-28 19:27S 33°03' E 151°45'0 0.0
2017-Nov-28 19:00S 33°03' E 151°45'0 0.0
2017-Nov-28 18:30S 33°03' E 151°45'0 0.0
2017-Nov-28 18:00S 33°03' E 151°45'0 0.0
2017-Nov-28 17:24S 33°04' E 151°45'0 0.0
2017-Nov-28 17:00S 33°04' E 151°45'0 0.1
2017-Nov-28 16:30S 33°04' E 151°45'0 0.0
2017-Nov-28 16:00S 33°04' E 151°45'0 0.1
2017-Nov-28 14:57S 33°04' E 151°45'0 0.0
2017-Nov-28 14:30S 33°04' E 151°45'0 0.0
2017-Nov-28 14:00S 33°04' E 151°45'0 0.0
2017-Nov-28 13:30S 33°04' E 151°45'0 0.0
2017-Nov-28 13:00S 33°04' E 151°45'0 0.0
2017-Nov-28 12:30S 33°04' E 151°45'0 0.0
2017-Nov-28 12:00S 33°04' E 151°45'0 0.0
2017-Nov-28 11:27S 33°04' E 151°45'0 0.1
2017-Nov-28 10:57S 33°04' E 151°45'0 0.0
2017-Nov-28 10:27S 33°04' E 151°45'0 0.0
2017-Nov-28 10:00S 33°04' E 151°45'0 0.0
2017-Nov-28 09:24S 33°04' E 151°45'0 0.0
2017-Nov-28 08:54S 33°04' E 151°45'0 0.0
2017-Nov-28 08:30S 33°04' E 151°45'0 0.0
2017-Nov-28 08:00S 33°04' E 151°45'0 0.0
2017-Nov-28 07:30S 33°04' E 151°45'0 0.0
2017-Nov-28 07:00S 33°04' E 151°45'0 0.0
2017-Nov-28 06:27S 33°04' E 151°45'0 0.0
2017-Nov-28 05:57S 33°04' E 151°45'0 0.0
2017-Nov-28 05:24S 33°04' E 151°45'0 0.0
2017-Nov-28 03:48S 33°04' E 151°45'0 0.0
2017-Nov-28 03:30S 33°04' E 151°45'0 0.0
2017-Nov-28 03:00S 33°04' E 151°45'0 0.0
2017-Nov-28 02:27S 33°03' E 151°45'0 0.1
2017-Nov-28 02:00S 33°04' E 151°45'0 0.1
2017-Nov-28 01:27S 33°03' E 151°45'0 0.0
2017-Nov-28 01:00S 33°03' E 151°45'0 0.1
2017-Nov-28 00:30S 33°03' E 151°45'0 0.1
2017-Nov-28 00:00S 33°03' E 151°45'0 0.0
2017-Nov-27 23:30S 33°03' E 151°45'0 0.0
2017-Nov-27 23:00S 33°04' E 151°45'0 0.0
2017-Nov-27 22:30S 33°03' E 151°45'0 0.1
2017-Nov-27 22:00S 33°04' E 151°45'0 0.0
2017-Nov-27 21:30S 33°04' E 151°45'0 0.0
2017-Nov-27 20:57S 33°04' E 151°45'0 0.1
2017-Nov-27 20:30S 33°04' E 151°45'0 0.0
2017-Nov-27 20:00S 33°04' E 151°45'0 0.0
2017-Nov-27 19:30S 33°04' E 151°45'0 0.0
2017-Nov-27 19:00S 33°04' E 151°45'0 0.0
2017-Nov-27 18:30S 33°04' E 151°45'0 0.0
2017-Nov-27 18:00S 33°04' E 151°45'0 0.0
2017-Nov-27 17:24S 33°04' E 151°45'0 0.0
2017-Nov-27 17:00S 33°04' E 151°45'0 0.0
2017-Nov-27 16:30S 33°04' E 151°45'0 0.0
2017-Nov-27 15:57S 33°04' E 151°45'0 0.0
2017-Nov-27 15:30S 33°04' E 151°45'0 0.0
2017-Nov-27 15:00S 33°04' E 151°45'0 0.0
2017-Nov-27 14:24S 33°04' E 151°45'0 0.0
2017-Nov-27 14:00S 33°04' E 151°45'0 0.0
2017-Nov-27 13:30S 33°04' E 151°45'0 0.0
2017-Nov-27 13:00S 33°04' E 151°45'0 0.0
2017-Nov-27 12:30S 33°04' E 151°45'0 0.1
2017-Nov-27 12:00S 33°04' E 151°45'0 0.0
2017-Nov-27 11:30S 33°04' E 151°45'0 0.0
2017-Nov-27 11:00S 33°04' E 151°45'0 0.0
2017-Nov-27 10:30S 33°04' E 151°45'0 0.1
2017-Nov-27 10:00S 33°04' E 151°45'0 0.0
2017-Nov-27 09:30S 33°04' E 151°45'0 0.0
2017-Nov-27 09:00S 33°04' E 151°45'0 0.1
2017-Nov-27 08:30S 33°04' E 151°45'0 0.1
2017-Nov-27 08:00S 33°04' E 151°45'0 0.0
2017-Nov-27 07:30S 33°04' E 151°45'0 0.0
2017-Nov-27 07:00S 33°04' E 151°45'0 0.0
2017-Nov-27 06:30S 33°04' E 151°45'0 0.0
2017-Nov-27 06:00S 33°04' E 151°45'0 0.0
2017-Nov-27 05:30S 33°04' E 151°45'0 0.0
2017-Nov-27 04:57S 33°04' E 151°45'0 0.0
2017-Nov-27 04:27S 33°04' E 151°45'0 0.0
2017-Nov-27 03:57S 33°04' E 151°45'0 0.1
2017-Nov-27 03:30S 33°04' E 151°45'0 0.0
2017-Nov-27 03:00S 33°04' E 151°45'0 0.0
2017-Nov-27 02:30S 33°04' E 151°45'0 0.0
2017-Nov-27 02:00S 33°04' E 151°45'0 0.0
2017-Nov-27 01:30S 33°04' E 151°45'0 0.0
2017-Nov-27 01:00S 33°04' E 151°45'0 0.0
2017-Nov-27 00:30S 33°04' E 151°45'0 0.0
2017-Nov-26 23:57S 33°04' E 151°45'0 0.0
2017-Nov-26 23:30S 33°04' E 151°45'0 0.0
2017-Nov-26 23:00S 33°04' E 151°45'0 0.0
2017-Nov-26 22:27S 33°04' E 151°45'0 0.0
2017-Nov-26 22:00S 33°04' E 151°45'0 0.0
2017-Nov-26 21:30S 33°04' E 151°45'0 0.0
2017-Nov-26 21:00S 33°04' E 151°45'0 0.0
2017-Nov-26 20:27S 33°04' E 151°45'0 0.0
2017-Nov-26 20:00S 33°04' E 151°45'0 0.0
2017-Nov-26 19:30S 33°04' E 151°45'0 0.0
2017-Nov-26 19:00S 33°04' E 151°45'0 0.0
2017-Nov-26 18:30S 33°04' E 151°45'0 0.0
2017-Nov-26 18:00S 33°04' E 151°45'0 0.0
2017-Nov-26 17:30S 33°04' E 151°45'0 0.0
2017-Nov-26 17:00S 33°04' E 151°45'0 0.0
2017-Nov-26 16:30S 33°04' E 151°45'0 0.0
2017-Nov-26 16:00S 33°04' E 151°45'0 0.0
2017-Nov-26 15:30S 33°04' E 151°45'0 0.0
2017-Nov-26 15:00S 33°04' E 151°45'0 0.0
2017-Nov-26 14:21S 33°04' E 151°45'0 0.0
2017-Nov-26 13:42S 33°04' E 151°45'0 0.0
2017-Nov-26 13:27S 33°04' E 151°45'0 0.0
2017-Nov-26 12:57S 33°04' E 151°45'0 0.0
2017-Nov-26 12:30S 33°04' E 151°45'0 0.0
2017-Nov-26 12:00S 33°04' E 151°45'0 0.0
2017-Nov-26 11:30S 33°04' E 151°45'0 0.0
2017-Nov-26 10:57S 33°04' E 151°45'0 0.0
2017-Nov-26 10:30S 33°04' E 151°45'0 0.1
2017-Nov-26 10:00S 33°04' E 151°45'0 0.1
2017-Nov-26 09:30S 33°04' E 151°45'0 0.0
2017-Nov-26 09:00S 33°04' E 151°45'0 0.0
2017-Nov-26 08:30S 33°04' E 151°45'0 0.0
2017-Nov-26 08:00S 33°04' E 151°45'0 0.0
2017-Nov-26 07:27S 33°04' E 151°45'0 0.0
2017-Nov-26 06:51S 33°04' E 151°45'0 0.1
2017-Nov-26 06:24S 33°04' E 151°45'0 0.1
2017-Nov-26 06:00S 33°04' E 151°45'0 0.1
2017-Nov-26 05:30S 33°04' E 151°45'0 0.0
2017-Nov-26 04:33S 33°04' E 151°45'0 0.2
2017-Nov-26 04:30S 33°04' E 151°45'0 0.0
2017-Nov-26 04:00S 33°04' E 151°45'0 0.0
2017-Nov-26 03:27S 33°04' E 151°45'0 0.0
2017-Nov-26 02:57S 33°04' E 151°45'0 0.0
2017-Nov-26 02:30S 33°04' E 151°45'0 0.0
2017-Nov-26 02:00S 33°04' E 151°45'0 0.0
2017-Nov-26 01:30S 33°04' E 151°45'0 0.0
2017-Nov-26 01:00S 33°04' E 151°45'0 0.0
2017-Nov-26 00:06S 33°04' E 151°45'0 0.1
2017-Nov-26 00:00S 33°04' E 151°45'0 0.0
2017-Nov-25 23:24S 33°04' E 151°45'0 0.0
2017-Nov-25 23:00S 33°04' E 151°45'0 0.0
2017-Nov-25 22:30S 33°04' E 151°45'0 0.0
2017-Nov-25 21:54S 33°04' E 151°45'0 0.0
2017-Nov-25 21:30S 33°04' E 151°45'0 0.0
2017-Nov-25 21:00S 33°04' E 151°45'0 0.0
2017-Nov-25 20:24S 33°04' E 151°45'0 0.0
2017-Nov-25 19:57S 33°04' E 151°45'0 0.0
2017-Nov-25 19:30S 33°04' E 151°45'0 0.0
2017-Nov-25 19:00S 33°04' E 151°45'0 0.0
2017-Nov-25 18:27S 33°04' E 151°45'0 0.0
2017-Nov-25 18:00S 33°04' E 151°45'0 0.1
2017-Nov-25 17:30S 33°04' E 151°45'0 0.0
2017-Nov-25 17:00S 33°04' E 151°45'0 0.0
2017-Nov-25 16:30S 33°04' E 151°45'0 0.0
2017-Nov-25 16:00S 33°04' E 151°45'0 0.0
2017-Nov-25 15:30S 33°04' E 151°45'0 0.0
2017-Nov-25 15:00S 33°04' E 151°45'0 0.0
2017-Nov-25 14:27S 33°04' E 151°45'0 0.0
2017-Nov-25 14:00S 33°04' E 151°45'0 0.0
2017-Nov-25 13:27S 33°04' E 151°45'0 0.0
2017-Nov-25 13:00S 33°04' E 151°45'0 0.0
2017-Nov-25 12:30S 33°04' E 151°45'0 0.0
2017-Nov-25 12:00S 33°04' E 151°45'0 0.0
2017-Nov-25 11:30S 33°04' E 151°45'0 0.1
2017-Nov-25 10:57S 33°04' E 151°45'0 0.0
2017-Nov-25 10:24S 33°04' E 151°45'0 0.0
2017-Nov-25 10:00S 33°04' E 151°45'0 0.0
2017-Nov-25 09:30S 33°04' E 151°45'0 0.0
2017-Nov-25 09:00S 33°04' E 151°45'0 0.0
2017-Nov-25 08:30S 33°04' E 151°45'0 0.0
2017-Nov-25 08:00S 33°04' E 151°45'0 0.0
2017-Nov-25 07:30S 33°04' E 151°45'0 0.0
2017-Nov-25 07:00S 33°04' E 151°45'0 0.0
2017-Nov-25 06:27S 33°04' E 151°45'0 0.0
2017-Nov-25 05:45S 33°04' E 151°45'0 0.0
2017-Nov-25 05:18S 33°04' E 151°45'0 0.0
2017-Nov-25 05:00S 33°04' E 151°45'0 0.0
2017-Nov-25 04:30S 33°04' E 151°45'0 0.0
2017-Nov-25 04:00S 33°04' E 151°45'0 0.0
2017-Nov-25 03:30S 33°04' E 151°45'0 0.0
2017-Nov-25 03:00S 33°04' E 151°45'0 0.0
2017-Nov-25 02:30S 33°04' E 151°45'0 0.0
2017-Nov-25 02:00S 33°04' E 151°45'0 0.0
2017-Nov-25 01:30S 33°04' E 151°45'0 0.0
2017-Nov-25 00:54S 33°04' E 151°45'0 0.0
2017-Nov-25 00:30S 33°03' E 151°45'0 0.0
2017-Nov-25 00:00S 33°04' E 151°45'0 0.0
2017-Nov-24 23:30S 33°04' E 151°45'0 0.0
2017-Nov-24 23:00S 33°04' E 151°45'0 0.0
2017-Nov-24 22:30S 33°04' E 151°45'0 0.0
2017-Nov-24 22:00S 33°04' E 151°45'0 0.0
2017-Nov-24 21:18S 33°04' E 151°45'0 0.0
2017-Nov-24 20:03S 33°04' E 151°45'0 0.0
2017-Nov-24 20:00S 33°04' E 151°45'0 0.0
2017-Nov-24 19:30S 33°04' E 151°45'0 0.0
2017-Nov-24 19:00S 33°04' E 151°45'0 0.0
2017-Nov-24 18:27S 33°04' E 151°45'0 0.1
2017-Nov-24 18:00S 33°04' E 151°45'0 0.0
2017-Nov-24 17:21S 33°04' E 151°45'0 0.0
2017-Nov-24 17:00S 33°04' E 151°45'0 0.0
2017-Nov-24 16:30S 33°04' E 151°45'0 0.0
2017-Nov-24 16:00S 33°04' E 151°45'0 0.0
2017-Nov-24 15:30S 33°04' E 151°45'0 0.0
2017-Nov-24 15:00S 33°04' E 151°45'0 0.0
2017-Nov-24 14:30S 33°04' E 151°45'0 0.0
2017-Nov-24 14:00S 33°04' E 151°45'0 0.0
2017-Nov-24 13:30S 33°04' E 151°45'0 0.0
2017-Nov-24 13:00S 33°04' E 151°45'0 0.0
2017-Nov-24 12:30S 33°04' E 151°45'0 0.0
2017-Nov-24 12:00S 33°04' E 151°45'0 0.0
2017-Nov-24 11:30S 33°04' E 151°45'0 0.0
2017-Nov-24 11:00S 33°04' E 151°45'0 0.0
2017-Nov-24 10:30S 33°04' E 151°45'0 0.0
2017-Nov-24 10:00S 33°04' E 151°45'0 0.0
2017-Nov-24 09:21S 33°04' E 151°45'0 0.1
2017-Nov-24 09:00S 33°04' E 151°45'0 0.0
2017-Nov-24 08:27S 33°04' E 151°45'0 0.0
2017-Nov-24 08:00S 33°04' E 151°45'0 0.1
2017-Nov-24 07:30S 33°04' E 151°45'0 0.0
2017-Nov-24 07:00S 33°04' E 151°45'0 0.0
2017-Nov-24 06:30S 33°04' E 151°45'0 0.0
2017-Nov-24 06:00S 33°04' E 151°45'0 0.0
2017-Nov-24 05:30S 33°04' E 151°45'0 0.0
2017-Nov-24 05:00S 33°04' E 151°45'0 0.0
2017-Nov-24 04:30S 33°04' E 151°45'0 0.0
2017-Nov-24 04:00S 33°04' E 151°45'0 0.0
2017-Nov-24 03:30S 33°04' E 151°45'0 0.0
2017-Nov-24 03:00S 33°04' E 151°45'0 0.0
2017-Nov-24 02:30S 33°04' E 151°45'0 0.0
2017-Nov-24 02:00S 33°04' E 151°45'0 0.0
2017-Nov-24 01:30S 33°04' E 151°45'0 0.0
2017-Nov-24 00:57S 33°04' E 151°45'0 0.0
2017-Nov-24 00:03S 33°04' E 151°45'0 0.0
2017-Nov-23 23:45S 33°04' E 151°45'0 0.0
2017-Nov-23 23:15S 33°04' E 151°45'0 0.0
2017-Nov-23 22:51S 33°04' E 151°45'0 0.0
2017-Nov-23 22:30S 33°04' E 151°45'0 0.0
2017-Nov-23 22:00S 33°04' E 151°45'0 0.0
2017-Nov-23 21:30S 33°04' E 151°45'0 0.0
2017-Nov-23 21:00S 33°04' E 151°45'0 0.0
2017-Nov-23 20:30S 33°04' E 151°45'0 0.0
2017-Nov-23 20:00S 33°04' E 151°45'0 0.0
2017-Nov-23 19:30S 33°04' E 151°45'0 0.1
2017-Nov-23 18:57S 33°04' E 151°45'0 0.0
2017-Nov-23 18:30S 33°04' E 151°45'0 0.0
2017-Nov-23 18:00S 33°04' E 151°45'0 0.0
2017-Nov-23 17:27S 33°04' E 151°45'0 0.0
2017-Nov-23 17:00S 33°04' E 151°45'0 0.0
2017-Nov-23 16:30S 33°04' E 151°45'0 0.0
2017-Nov-23 16:00S 33°04' E 151°45'0 0.0
2017-Nov-23 15:30S 33°04' E 151°45'0 0.0
2017-Nov-23 15:00S 33°04' E 151°45'0 0.0
2017-Nov-23 14:24S 33°04' E 151°45'0 0.0
2017-Nov-23 14:00S 33°04' E 151°45'0 0.0
2017-Nov-23 13:30S 33°04' E 151°45'0 0.0
2017-Nov-23 13:00S 33°04' E 151°45'0 0.0
2017-Nov-23 12:30S 33°04' E 151°45'0 0.0
2017-Nov-23 12:00S 33°04' E 151°45'0 0.0
2017-Nov-23 11:30S 33°04' E 151°45'0 0.0
2017-Nov-23 11:00S 33°04' E 151°45'0 0.0
2017-Nov-23 10:30S 33°04' E 151°45'0 0.1
2017-Nov-23 10:00S 33°04' E 151°45'  
Track history (hours):
 
Tides and Currents Weather Stations Pressure Air Temp Water Temp Dewpoint Dewpoint Depression Visibility Wind Speed Wind Dir Waves Ship Positions

Ttm Hope

Last reported at 2017-Dec-03 09:35 UTC. Time now 2017-Dec-13 09:17 UTC.
Position S 26°60' E 153°58'.
Warning: this ship's position is 9 days out of date.

Length 245 m; draft 15.4 m.

Type: Cargo ship. MMSI: 373805000.

Date/timePositionNaut miles runAvg speedWind from/ knotsBaromVisibWave heightAir tempDewpointWater temp
2017-Dec-03 09:35S 26°60' E 153°58'3511.4
2017-Dec-03 06:29S 27°35' E 153°55'611.9
2017-Dec-03 06:00S 27°41' E 153°55'612.1
2017-Dec-03 05:30S 27°47' E 153°54'612.4
2017-Dec-03 05:00S 27°53' E 153°54'612.6
2017-Dec-03 04:30S 27°59' E 153°53'612.6
2017-Dec-03 04:00S 28°05' E 153°53'612.3
2017-Dec-03 03:30S 28°12' E 153°52'612.1
2017-Dec-03 03:00S 28°18' E 153°52'612.6
2017-Dec-03 02:30S 28°24' E 153°52'612.8
2017-Dec-03 02:00S 28°30' E 153°51'612.6
2017-Dec-03 01:30S 28°37' E 153°50'23610.5
2017-Dec-02 02:59S 32°25' E 152°41'610.7
2017-Dec-02 02:28S 32°30' E 152°39'511.7
2017-Dec-02 02:00S 32°34' E 152°34'612.4
2017-Dec-02 01:30S 32°38' E 152°29'612.1
2017-Dec-02 01:00S 32°43' E 152°24'612.3
2017-Dec-02 00:30S 32°47' E 152°18'612.2
2017-Dec-02 00:00S 32°51' E 152°13'612.3
2017-Dec-01 23:30S 32°54' E 152°07'612.5
2017-Dec-01 23:00S 32°57' E 152°00'611.7
2017-Dec-01 22:30S 32°57' E 151°53'4 7.9
2017-Dec-01 22:00S 32°55' E 151°49'2 4.3
2017-Dec-01 21:30S 32°55' E 151°47'2 3.3
2017-Dec-01 21:00S 32°53' E 151°46'1 0.1
2017-Dec-01 07:54S 32°53' E 151°45'0 0.0
2017-Dec-01 07:30S 32°53' E 151°45'0 0.0
2017-Dec-01 06:57S 32°53' E 151°45'0 0.0
2017-Dec-01 06:30S 32°53' E 151°45'0 0.0
2017-Dec-01 06:00S 32°53' E 151°45'0 0.0
2017-Dec-01 05:18S 32°53' E 151°45'0 0.0
2017-Dec-01 05:00S 32°53' E 151°45'0 0.0
2017-Dec-01 04:18S 32°53' E 151°45'0 0.0
2017-Dec-01 03:42S 32°53' E 151°45'0 0.0
2017-Dec-01 03:12S 32°53' E 151°45'0 0.0
2017-Dec-01 02:57S 32°53' E 151°45'0 0.0
2017-Dec-01 02:24S 32°53' E 151°45'0 0.0
2017-Dec-01 02:00S 32°53' E 151°45'0 0.0
2017-Dec-01 00:27S 32°53' E 151°45'0 0.0
2017-Nov-30 23:51S 32°53' E 151°45'0 0.0
2017-Nov-30 23:24S 32°53' E 151°45'0 0.0
2017-Nov-30 22:54S 32°53' E 151°45'0 0.0
2017-Nov-30 22:30S 32°53' E 151°45'0 0.0
2017-Nov-30 22:00S 32°53' E 151°45'0 0.8
2017-Nov-30 21:30S 32°53' E 151°45'1 2.9
2017-Nov-30 21:01S 32°54' E 151°46'3 5.7
2017-Nov-30 20:31S 32°55' E 151°50'3 5.3
2017-Nov-30 20:00S 32°57' E 151°51'2 4.9
2017-Nov-30 19:31S 32°60' E 151°51'4 7.9
2017-Nov-30 19:01S 33°02' E 151°48'3 4.6
2017-Nov-30 18:28S 33°04' E 151°45'0 0.2
2017-Nov-30 18:01S 33°04' E 151°45'0 0.0
2017-Nov-30 17:28S 33°04' E 151°45'0 0.0
2017-Nov-30 16:55S 33°04' E 151°45'0 0.0
2017-Nov-30 16:28S 33°04' E 151°45'0 0.0
2017-Nov-30 15:58S 33°04' E 151°45'0 0.0
2017-Nov-30 15:25S 33°04' E 151°45'0 0.0
2017-Nov-30 14:58S 33°04' E 151°45'0 0.0
2017-Nov-30 14:28S 33°04' E 151°45'0 0.0
2017-Nov-30 13:55S 33°04' E 151°45'0 0.0
2017-Nov-30 13:31S 33°04' E 151°45'0 0.1
2017-Nov-30 13:01S 33°04' E 151°45'0 0.1
2017-Nov-30 12:28S 33°04' E 151°45'0 0.0
2017-Nov-30 11:49S 33°04' E 151°45'0 0.0
2017-Nov-30 11:28S 33°04' E 151°45'0 0.0
2017-Nov-30 10:52S 33°04' E 151°45'0 0.0
2017-Nov-30 10:10S 33°04' E 151°45'0 0.0
2017-Nov-30 09:58S 33°04' E 151°45'0 0.0
2017-Nov-30 09:28S 33°04' E 151°45'0 0.0
2017-Nov-30 08:58S 33°04' E 151°45'0 0.0
2017-Nov-30 08:28S 33°04' E 151°45'0 0.0
2017-Nov-30 07:58S 33°04' E 151°45'0 0.1
2017-Nov-30 07:30S 33°04' E 151°45'1 1.7
2017-Nov-30 07:00S 33°04' E 151°46'4 5.9
2017-Nov-30 06:25S 33°03' E 151°50'3 7.1
2017-Nov-30 06:00S 33°03' E 151°47'1 2.9
2017-Nov-30 05:30S 33°04' E 151°45'0 0.1
2017-Nov-30 05:00S 33°04' E 151°45'0 0.0
2017-Nov-30 04:15S 33°04' E 151°45'0 0.0
2017-Nov-30 04:00S 33°04' E 151°45'0 0.0
2017-Nov-30 03:27S 33°04' E 151°45'0 0.0
2017-Nov-30 02:48S 33°04' E 151°45'0 0.0
2017-Nov-30 02:30S 33°04' E 151°45'0 0.0
2017-Nov-30 02:00S 33°04' E 151°45'0 0.0
2017-Nov-30 01:30S 33°04' E 151°45'0 0.0
2017-Nov-30 01:00S 33°04' E 151°45'0 0.0
2017-Nov-30 00:30S 33°04' E 151°45'0 0.0
2017-Nov-30 00:00S 33°04' E 151°45'0 0.0
2017-Nov-29 23:30S 33°04' E 151°45'0 0.0
2017-Nov-29 23:00S 33°04' E 151°45'0 0.0
2017-Nov-29 22:12S 33°04' E 151°45'0 0.1
2017-Nov-29 22:00S 33°04' E 151°45'0 0.0
2017-Nov-29 21:30S 33°04' E 151°45'0 0.0
2017-Nov-29 21:00S 33°04' E 151°45'0 0.0
2017-Nov-29 20:30S 33°03' E 151°45'0 0.0
2017-Nov-29 19:54S 33°03' E 151°45'0 0.0
2017-Nov-29 19:24S 33°03' E 151°45'0 0.0
2017-Nov-29 19:00S 33°03' E 151°45'0 0.0
2017-Nov-29 18:30S 33°03' E 151°45'0 0.0
2017-Nov-29 18:00S 33°03' E 151°45'0 0.0
2017-Nov-29 17:30S 33°03' E 151°45'0 0.0
2017-Nov-29 17:00S 33°04' E 151°45'0 0.0
2017-Nov-29 16:30S 33°04' E 151°45'0 0.0
2017-Nov-29 15:39S 33°04' E 151°45'0 0.0
2017-Nov-29 15:30S 33°04' E 151°45'0 0.0
2017-Nov-29 15:00S 33°04' E 151°45'0 0.0
2017-Nov-29 14:30S 33°04' E 151°45'0 0.0
2017-Nov-29 14:00S 33°04' E 151°45'0 0.1
2017-Nov-29 13:27S 33°04' E 151°45'0 0.0
2017-Nov-29 12:51S 33°04' E 151°45'0 0.0
2017-Nov-29 12:30S 33°04' E 151°45'0 0.0
2017-Nov-29 12:00S 33°04' E 151°45'0 0.0
2017-Nov-29 11:30S 33°04' E 151°45'0 0.0
2017-Nov-29 11:00S 33°04' E 151°45'0 0.0
2017-Nov-29 10:30S 33°04' E 151°45'0 0.0
2017-Nov-29 10:00S 33°04' E 151°45'0 0.1
2017-Nov-29 09:30S 33°04' E 151°45'0 0.0
2017-Nov-29 09:00S 33°04' E 151°45'0 0.0
2017-Nov-29 08:30S 33°04' E 151°45'0 0.0
2017-Nov-29 07:54S 33°04' E 151°45'0 0.0
2017-Nov-29 07:27S 33°04' E 151°45'0 0.0
2017-Nov-29 07:00S 33°04' E 151°45'0 0.0
2017-Nov-29 06:30S 33°04' E 151°45'0 0.0
2017-Nov-29 06:00S 33°04' E 151°45'0 0.0
2017-Nov-29 05:09S 33°04' E 151°45'0 0.0
2017-Nov-29 05:00S 33°04' E 151°45'0 0.0
2017-Nov-29 04:27S 33°04' E 151°45'0 0.0
2017-Nov-29 04:00S 33°04' E 151°45'0 0.0
2017-Nov-29 03:30S 33°04' E 151°45'0 0.0
2017-Nov-29 03:00S 33°04' E 151°45'0 0.0
2017-Nov-29 02:30S 33°03' E 151°45'0 0.0
2017-Nov-29 02:00S 33°04' E 151°45'0 0.0
2017-Nov-29 01:30S 33°04' E 151°45'0 0.0
2017-Nov-29 01:00S 33°04' E 151°45'0 0.0
2017-Nov-29 00:24S 33°04' E 151°45'0 0.0
2017-Nov-28 23:57S 33°03' E 151°45'0 0.0
2017-Nov-28 23:24S 33°04' E 151°45'0 0.0
2017-Nov-28 22:48S 33°04' E 151°45'0 0.0
2017-Nov-28 22:30S 33°04' E 151°45'0 0.0
2017-Nov-28 22:00S 33°04' E 151°45'0 0.0
2017-Nov-28 21:30S 33°03' E 151°45'0 0.0
2017-Nov-28 21:00S 33°03' E 151°45'0 0.0
2017-Nov-28 20:27S 33°03' E 151°45'0 0.0
2017-Nov-28 19:39S 33°03' E 151°45'0 0.1
2017-Nov-28 19:27S 33°03' E 151°45'0 0.0
2017-Nov-28 19:00S 33°03' E 151°45'0 0.0
2017-Nov-28 18:30S 33°03' E 151°45'0 0.0
2017-Nov-28 18:00S 33°03' E 151°45'0 0.0
2017-Nov-28 17:24S 33°04' E 151°45'0 0.0
2017-Nov-28 17:00S 33°04' E 151°45'0 0.1
2017-Nov-28 16:30S 33°04' E 151°45'0 0.0
2017-Nov-28 16:00S 33°04' E 151°45'0 0.1
2017-Nov-28 14:57S 33°04' E 151°45'0 0.0
2017-Nov-28 14:30S 33°04' E 151°45'0 0.0
2017-Nov-28 14:00S 33°04' E 151°45'0 0.0
2017-Nov-28 13:30S 33°04' E 151°45'0 0.0
2017-Nov-28 13:00S 33°04' E 151°45'0 0.0
2017-Nov-28 12:30S 33°04' E 151°45'0 0.0
2017-Nov-28 12:00S 33°04' E 151°45'0 0.0
2017-Nov-28 11:27S 33°04' E 151°45'0 0.1
2017-Nov-28 10:57S 33°04' E 151°45'0 0.0
2017-Nov-28 10:27S 33°04' E 151°45'0 0.0
2017-Nov-28 10:00S 33°04' E 151°45'0 0.0
2017-Nov-28 09:24S 33°04' E 151°45'0 0.0
2017-Nov-28 08:54S 33°04' E 151°45'0 0.0
2017-Nov-28 08:30S 33°04' E 151°45'0 0.0
2017-Nov-28 08:00S 33°04' E 151°45'0 0.0
2017-Nov-28 07:30S 33°04' E 151°45'0 0.0
2017-Nov-28 07:00S 33°04' E 151°45'0 0.0
2017-Nov-28 06:27S 33°04' E 151°45'0 0.0
2017-Nov-28 05:57S 33°04' E 151°45'0 0.0
2017-Nov-28 05:24S 33°04' E 151°45'0 0.0
2017-Nov-28 03:48S 33°04' E 151°45'0 0.0
2017-Nov-28 03:30S 33°04' E 151°45'0 0.0
2017-Nov-28 03:00S 33°04' E 151°45'0 0.0
2017-Nov-28 02:27S 33°03' E 151°45'0 0.1
2017-Nov-28 02:00S 33°04' E 151°45'0 0.1
2017-Nov-28 01:27S 33°03' E 151°45'0 0.0
2017-Nov-28 01:00S 33°03' E 151°45'0 0.1
2017-Nov-28 00:30S 33°03' E 151°45'0 0.1
2017-Nov-28 00:00S 33°03' E 151°45'0 0.0
2017-Nov-27 23:30S 33°03' E 151°45'0 0.0
2017-Nov-27 23:00S 33°04' E 151°45'0 0.0
2017-Nov-27 22:30S 33°03' E 151°45'0 0.1
2017-Nov-27 22:00S 33°04' E 151°45'0 0.0
2017-Nov-27 21:30S 33°04' E 151°45'0 0.0
2017-Nov-27 20:57S 33°04' E 151°45'0 0.1
2017-Nov-27 20:30S 33°04' E 151°45'0 0.0
2017-Nov-27 20:00S 33°04' E 151°45'0 0.0
2017-Nov-27 19:30S 33°04' E 151°45'0 0.0
2017-Nov-27 19:00S 33°04' E 151°45'0 0.0
2017-Nov-27 18:30S 33°04' E 151°45'0 0.0
2017-Nov-27 18:00S 33°04' E 151°45'0 0.0
2017-Nov-27 17:24S 33°04' E 151°45'0 0.0
2017-Nov-27 17:00S 33°04' E 151°45'0 0.0
2017-Nov-27 16:30S 33°04' E 151°45'0 0.0
2017-Nov-27 15:57S 33°04' E 151°45'0 0.0
2017-Nov-27 15:30S 33°04' E 151°45'0 0.0
2017-Nov-27 15:00S 33°04' E 151°45'0 0.0
2017-Nov-27 14:24S 33°04' E 151°45'0 0.0
2017-Nov-27 14:00S 33°04' E 151°45'0 0.0
2017-Nov-27 13:30S 33°04' E 151°45'0 0.0
2017-Nov-27 13:00S 33°04' E 151°45'0 0.0
2017-Nov-27 12:30S 33°04' E 151°45'0 0.1
2017-Nov-27 12:00S 33°04' E 151°45'0 0.0
2017-Nov-27 11:30S 33°04' E 151°45'0 0.0
2017-Nov-27 11:00S 33°04' E 151°45'0 0.0
2017-Nov-27 10:30S 33°04' E 151°45'0 0.1
2017-Nov-27 10:00S 33°04' E 151°45'0 0.0
2017-Nov-27 09:30S 33°04' E 151°45'0 0.0
2017-Nov-27 09:00S 33°04' E 151°45'0 0.1
2017-Nov-27 08:30S 33°04' E 151°45'0 0.1
2017-Nov-27 08:00S 33°04' E 151°45'0 0.0
2017-Nov-27 07:30S 33°04' E 151°45'0 0.0
2017-Nov-27 07:00S 33°04' E 151°45'0 0.0
2017-Nov-27 06:30S 33°04' E 151°45'0 0.0
2017-Nov-27 06:00S 33°04' E 151°45'0 0.0
2017-Nov-27 05:30S 33°04' E 151°45'0 0.0
2017-Nov-27 04:57S 33°04' E 151°45'0 0.0
2017-Nov-27 04:27S 33°04' E 151°45'0 0.0
2017-Nov-27 03:57S 33°04' E 151°45'0 0.1
2017-Nov-27 03:30S 33°04' E 151°45'0 0.0
2017-Nov-27 03:00S 33°04' E 151°45'0 0.0
2017-Nov-27 02:30S 33°04' E 151°45'0 0.0
2017-Nov-27 02:00S 33°04' E 151°45'0 0.0
2017-Nov-27 01:30S 33°04' E 151°45'0 0.0
2017-Nov-27 01:00S 33°04' E 151°45'0 0.0
2017-Nov-27 00:30S 33°04' E 151°45'0 0.0
2017-Nov-26 23:57S 33°04' E 151°45'0 0.0
2017-Nov-26 23:30S 33°04' E 151°45'0 0.0
2017-Nov-26 23:00S 33°04' E 151°45'0 0.0
2017-Nov-26 22:27S 33°04' E 151°45'0 0.0
2017-Nov-26 22:00S 33°04' E 151°45'0 0.0
2017-Nov-26 21:30S 33°04' E 151°45'0 0.0
2017-Nov-26 21:00S 33°04' E 151°45'0 0.0
2017-Nov-26 20:27S 33°04' E 151°45'0 0.0
2017-Nov-26 20:00S 33°04' E 151°45'0 0.0
2017-Nov-26 19:30S 33°04' E 151°45'0 0.0
2017-Nov-26 19:00S 33°04' E 151°45'0 0.0
2017-Nov-26 18:30S 33°04' E 151°45'0 0.0
2017-Nov-26 18:00S 33°04' E 151°45'0 0.0
2017-Nov-26 17:30S 33°04' E 151°45'0 0.0
2017-Nov-26 17:00S 33°04' E 151°45'0 0.0
2017-Nov-26 16:30S 33°04' E 151°45'0 0.0
2017-Nov-26 16:00S 33°04' E 151°45'0 0.0
2017-Nov-26 15:30S 33°04' E 151°45'0 0.0
2017-Nov-26 15:00S 33°04' E 151°45'0 0.0
2017-Nov-26 14:21S 33°04' E 151°45'0 0.0
2017-Nov-26 13:42S 33°04' E 151°45'0 0.0
2017-Nov-26 13:27S 33°04' E 151°45'0 0.0
2017-Nov-26 12:57S 33°04' E 151°45'0 0.0
2017-Nov-26 12:30S 33°04' E 151°45'0 0.0
2017-Nov-26 12:00S 33°04' E 151°45'0 0.0
2017-Nov-26 11:30S 33°04' E 151°45'0 0.0
2017-Nov-26 10:57S 33°04' E 151°45'0 0.0
2017-Nov-26 10:30S 33°04' E 151°45'0 0.1
2017-Nov-26 10:00S 33°04' E 151°45'0 0.1
2017-Nov-26 09:30S 33°04' E 151°45'0 0.0
2017-Nov-26 09:00S 33°04' E 151°45'0 0.0
2017-Nov-26 08:30S 33°04' E 151°45'0 0.0
2017-Nov-26 08:00S 33°04' E 151°45'0 0.0
2017-Nov-26 07:27S 33°04' E 151°45'0 0.0
2017-Nov-26 06:51S 33°04' E 151°45'0 0.1
2017-Nov-26 06:24S 33°04' E 151°45'0 0.1
2017-Nov-26 06:00S 33°04' E 151°45'0 0.1
2017-Nov-26 05:30S 33°04' E 151°45'0 0.0
2017-Nov-26 04:33S 33°04' E 151°45'0 0.2
2017-Nov-26 04:30S 33°04' E 151°45'0 0.0
2017-Nov-26 04:00S 33°04' E 151°45'0 0.0
2017-Nov-26 03:27S 33°04' E 151°45'0 0.0
2017-Nov-26 02:57S 33°04' E 151°45'0 0.0
2017-Nov-26 02:30S 33°04' E 151°45'0 0.0
2017-Nov-26 02:00S 33°04' E 151°45'0 0.0
2017-Nov-26 01:30S 33°04' E 151°45'0 0.0
2017-Nov-26 01:00S 33°04' E 151°45'0 0.0
2017-Nov-26 00:06S 33°04' E 151°45'0 0.1
2017-Nov-26 00:00S 33°04' E 151°45'0 0.0
2017-Nov-25 23:24S 33°04' E 151°45'0 0.0
2017-Nov-25 23:00S 33°04' E 151°45'0 0.0
2017-Nov-25 22:30S 33°04' E 151°45'0 0.0
2017-Nov-25 21:54S 33°04' E 151°45'0 0.0
2017-Nov-25 21:30S 33°04' E 151°45'0 0.0
2017-Nov-25 21:00S 33°04' E 151°45'0 0.0
2017-Nov-25 20:24S 33°04' E 151°45'0 0.0
2017-Nov-25 19:57S 33°04' E 151°45'0 0.0
2017-Nov-25 19:30S 33°04' E 151°45'0 0.0
2017-Nov-25 19:00S 33°04' E 151°45'0 0.0
2017-Nov-25 18:27S 33°04' E 151°45'0 0.0
2017-Nov-25 18:00S 33°04' E 151°45'0 0.1
2017-Nov-25 17:30S 33°04' E 151°45'0 0.0
2017-Nov-25 17:00S 33°04' E 151°45'0 0.0
2017-Nov-25 16:30S 33°04' E 151°45'0 0.0
2017-Nov-25 16:00S 33°04' E 151°45'0 0.0
2017-Nov-25 15:30S 33°04' E 151°45'0 0.0
2017-Nov-25 15:00S 33°04' E 151°45'0 0.0
2017-Nov-25 14:27S 33°04' E 151°45'0 0.0
2017-Nov-25 14:00S 33°04' E 151°45'0 0.0
2017-Nov-25 13:27S 33°04' E 151°45'0 0.0
2017-Nov-25 13:00S 33°04' E 151°45'0 0.0
2017-Nov-25 12:30S 33°04' E 151°45'0 0.0
2017-Nov-25 12:00S 33°04' E 151°45'0 0.0
2017-Nov-25 11:30S 33°04' E 151°45'0 0.1
2017-Nov-25 10:57S 33°04' E 151°45'0 0.0
2017-Nov-25 10:24S 33°04' E 151°45'0 0.0
2017-Nov-25 10:00S 33°04' E 151°45'0 0.0
2017-Nov-25 09:30S 33°04' E 151°45'0 0.0
2017-Nov-25 09:00S 33°04' E 151°45'0 0.0
2017-Nov-25 08:30S 33°04' E 151°45'0 0.0
2017-Nov-25 08:00S 33°04' E 151°45'0 0.0
2017-Nov-25 07:30S 33°04' E 151°45'0 0.0
2017-Nov-25 07:00S 33°04' E 151°45'0 0.0
2017-Nov-25 06:27S 33°04' E 151°45'0 0.0
2017-Nov-25 05:45S 33°04' E 151°45'0 0.0
2017-Nov-25 05:18S 33°04' E 151°45'0 0.0
2017-Nov-25 05:00S 33°04' E 151°45'0 0.0
2017-Nov-25 04:30S 33°04' E 151°45'0 0.0
2017-Nov-25 04:00S 33°04' E 151°45'0 0.0
2017-Nov-25 03:30S 33°04' E 151°45'0 0.0
2017-Nov-25 03:00S 33°04' E 151°45'0 0.0
2017-Nov-25 02:30S 33°04' E 151°45'0 0.0
2017-Nov-25 02:00S 33°04' E 151°45'0 0.0
2017-Nov-25 01:30S 33°04' E 151°45'0 0.0
2017-Nov-25 00:54S 33°04' E 151°45'0 0.0
2017-Nov-25 00:30S 33°03' E 151°45'0 0.0
2017-Nov-25 00:00S 33°04' E 151°45'0 0.0
2017-Nov-24 23:30S 33°04' E 151°45'0 0.0
2017-Nov-24 23:00S 33°04' E 151°45'0 0.0
2017-Nov-24 22:30S 33°04' E 151°45'0 0.0
2017-Nov-24 22:00S 33°04' E 151°45'0 0.0
2017-Nov-24 21:18S 33°04' E 151°45'0 0.0
2017-Nov-24 20:03S 33°04' E 151°45'0 0.0
2017-Nov-24 20:00S 33°04' E 151°45'0 0.0
2017-Nov-24 19:30S 33°04' E 151°45'0 0.0
2017-Nov-24 19:00S 33°04' E 151°45'0 0.0
2017-Nov-24 18:27S 33°04' E 151°45'0 0.1
2017-Nov-24 18:00S 33°04' E 151°45'0 0.0
2017-Nov-24 17:21S 33°04' E 151°45'0 0.0
2017-Nov-24 17:00S 33°04' E 151°45'0 0.0
2017-Nov-24 16:30S 33°04' E 151°45'0 0.0
2017-Nov-24 16:00S 33°04' E 151°45'0 0.0
2017-Nov-24 15:30S 33°04' E 151°45'0 0.0
2017-Nov-24 15:00S 33°04' E 151°45'0 0.0
2017-Nov-24 14:30S 33°04' E 151°45'0 0.0
2017-Nov-24 14:00S 33°04' E 151°45'0 0.0
2017-Nov-24 13:30S 33°04' E 151°45'0 0.0
2017-Nov-24 13:00S 33°04' E 151°45'0 0.0
2017-Nov-24 12:30S 33°04' E 151°45'0 0.0
2017-Nov-24 12:00S 33°04' E 151°45'0 0.0
2017-Nov-24 11:30S 33°04' E 151°45'0 0.0
2017-Nov-24 11:00S 33°04' E 151°45'0 0.0
2017-Nov-24 10:30S 33°04' E 151°45'0 0.0
2017-Nov-24 10:00S 33°04' E 151°45'0 0.0
2017-Nov-24 09:21S 33°04' E 151°45'0 0.1
2017-Nov-24 09:00S 33°04' E 151°45'0 0.0
2017-Nov-24 08:27S 33°04' E 151°45'0 0.0
2017-Nov-24 08:00S 33°04' E 151°45'0 0.1
2017-Nov-24 07:30S 33°04' E 151°45'0 0.0
2017-Nov-24 07:00S 33°04' E 151°45'0 0.0
2017-Nov-24 06:30S 33°04' E 151°45'0 0.0
2017-Nov-24 06:00S 33°04' E 151°45'0 0.0
2017-Nov-24 05:30S 33°04' E 151°45'0 0.0
2017-Nov-24 05:00S 33°04' E 151°45'0 0.0
2017-Nov-24 04:30S 33°04' E 151°45'0 0.0
2017-Nov-24 04:00S 33°04' E 151°45'0 0.0
2017-Nov-24 03:30S 33°04' E 151°45'0 0.0
2017-Nov-24 03:00S 33°04' E 151°45'0 0.0
2017-Nov-24 02:30S 33°04' E 151°45'0 0.0
2017-Nov-24 02:00S 33°04' E 151°45'0 0.0
2017-Nov-24 01:30S 33°04' E 151°45'0 0.0
2017-Nov-24 00:57S 33°04' E 151°45'0 0.0
2017-Nov-24 00:03S 33°04' E 151°45'0 0.0
2017-Nov-23 23:45S 33°04' E 151°45'0 0.0
2017-Nov-23 23:15S 33°04' E 151°45'0 0.0
2017-Nov-23 22:51S 33°04' E 151°45'0 0.0
2017-Nov-23 22:30S 33°04' E 151°45'0 0.0
2017-Nov-23 22:00S 33°04' E 151°45'0 0.0
2017-Nov-23 21:30S 33°04' E 151°45'0 0.0
2017-Nov-23 21:00S 33°04' E 151°45'0 0.0
2017-Nov-23 20:30S 33°04' E 151°45'0 0.0
2017-Nov-23 20:00S 33°04' E 151°45'0 0.0
2017-Nov-23 19:30S 33°04' E 151°45'0 0.1
2017-Nov-23 18:57S 33°04' E 151°45'0 0.0
2017-Nov-23 18:30S 33°04' E 151°45'0 0.0
2017-Nov-23 18:00S 33°04' E 151°45'0 0.0
2017-Nov-23 17:27S 33°04' E 151°45'0 0.0
2017-Nov-23 17:00S 33°04' E 151°45'0 0.0
2017-Nov-23 16:30S 33°04' E 151°45'0 0.0
2017-Nov-23 16:00S 33°04' E 151°45'0 0.0
2017-Nov-23 15:30S 33°04' E 151°45'0 0.0
2017-Nov-23 15:00S 33°04' E 151°45'0 0.0
2017-Nov-23 14:24S 33°04' E 151°45'0 0.0
2017-Nov-23 14:00S 33°04' E 151°45'0 0.0
2017-Nov-23 13:30S 33°04' E 151°45'0 0.0
2017-Nov-23 13:00S 33°04' E 151°45'0 0.0
2017-Nov-23 12:30S 33°04' E 151°45'0 0.0
2017-Nov-23 12:00S 33°04' E 151°45'0 0.0
2017-Nov-23 11:30S 33°04' E 151°45'0 0.0
2017-Nov-23 11:00S 33°04' E 151°45'0 0.0
2017-Nov-23 10:30S 33°04' E 151°45'0 0.1
2017-Nov-23 10:00S 33°04' E 151°45'  

Dump ship's entire track history